Etusivu
METAR-TAF:

METAR-TAF

Lentoasemat :

Bessemer, Alabama, Yhdysvallat

Leveyspiiri: 33-18-45N, Pituuspiiri: 086-55-35W, korkeus merenpinnasta: 213 m

Tämänhetkinen sää

Tämä raportti tehtiin 28 minuuttia sitten, kello 13.56 UTC
Tuuli 7 kn kaakosta
Lämpötila 14°C
Kosteus 100%
Ilmanpaine 1020 hPa
Näkyvyys: 12.9 km
Pilvistä 200 ft:n korkeudessa

METAR: KEKY 181356Z AUTO 14007KT 8SM OVC002 14/14 A3011 RMK AO2 RAB13E39 SLP043 P0000 T01390139

Aika: 08:24 (14:24 UTC)


TAF: puuttuu

Säähavainnot ja -ennusteet yli 4000 lentoasemalta (METAR- ja TAF-raportit).

Käytössä olevat sääasemat on merkitty karttaan keltaisilla ja punaisilla pisteillä.

Aseta hiiri pisteen päälle nähdäksesi sääaseman nimen.

Klikkaa sitten nähdäksesi säähavainnot ja -ennusteet.

Kartan vaihtaminen: klikkaa mustalla rastilla varustettuja vihreitä pisteitä, niin voit zoomata sisään; viivalla varustettua vihreää pistettä, niin voit zoomata ulos tai vihreitä nuolia, niin pääset viereisille kartoille.


METAR-TAF: